Time;durP1;ratioP1;P1;durP2;ratioP2;P2;SDS_P1;SDS_P2;PMS_P1;PMS_P2;Temp;Humidity;BMP_temperature;BMP_pressure;BME280_temperature;BME280_humidity;BME280_pressure;Samples;Min_cycle;Max_cycle;Signal;HPM_P1;HPM_P2
2023/03/28 00:02:17;;;;;;;1999.90;999.90;;;3.80;99.90;;;;;;5067922;28;20491;-65
2023/03/28 00:04:44;;;;;;;1999.90;999.90;;;3.70;99.90;;;;;;5067056;28;20436;-64
2023/03/28 00:07:11;;;;;;;1999.90;999.90;;;3.70;99.90;;;;;;5068026;28;20506;-65
2023/03/28 00:09:39;;;;;;;1999.90;999.90;;;3.70;99.90;;;;;;5068460;28;20943;-65
2023/03/28 00:12:06;;;;;;;1999.90;999.90;;;3.70;99.90;;;;;;5067322;28;20431;-64
2023/03/28 00:14:34;;;;;;;1999.90;999.90;;;3.70;99.90;;;;;;5068441;28;20774;-64
2023/03/28 00:17:01;;;;;;;1999.90;999.90;;;3.80;99.90;;;;;;5066236;28;20868;-66
2023/03/28 00:19:31;;;;;;;1999.90;999.90;;;3.90;99.90;;;;;;5068474;28;20518;-66
2023/03/28 00:21:58;;;;;;;1999.90;999.90;;;3.90;99.90;;;;;;5067773;28;20430;-66
2023/03/28 00:24:25;;;;;;;1999.90;999.90;;;3.70;99.90;;;;;;5068089;28;20509;-66
2023/03/28 00:26:53;;;;;;;1999.90;999.90;;;4.00;99.90;;;;;;5065254;28;20430;-66
2023/03/28 00:29:22;;;;;;;1999.90;999.90;;;3.70;99.90;;;;;;5065960;28;20435;-65
2023/03/28 00:31:49;;;;;;;1999.90;999.90;;;3.30;99.90;;;;;;5067980;28;20469;-64
2023/03/28 00:34:17;;;;;;;1999.90;999.90;;;3.30;99.90;;;;;;5067748;28;20800;-65
2023/03/28 00:36:44;;;;;;;1999.90;999.90;;;3.40;99.90;;;;;;5068507;28;20917;-64
2023/03/28 00:39:12;;;;;;;1999.90;999.90;;;3.50;99.90;;;;;;5065922;28;20431;-65
2023/03/28 00:41:41;;;;;;;1999.90;999.90;;;3.80;99.90;;;;;;5067334;28;20427;-64
2023/03/28 00:44:47;;;;;;;1999.90;999.90;;;3.50;99.90;;;;;;5064113;28;20489;-64
2023/03/28 00:47:25;;;;;;;1999.90;999.90;;;3.50;99.90;;;;;;5067148;28;20439;-66
2023/03/28 00:49:55;;;;;;;1999.90;999.90;;;3.50;99.90;;;;;;5064748;28;20428;-65
2023/03/28 00:52:24;;;;;;;1999.90;999.90;;;3.40;99.90;;;;;;5068005;28;20480;-66
2023/03/28 00:54:52;;;;;;;1999.90;999.90;;;3.40;99.90;;;;;;5066892;28;20457;-65
2023/03/28 00:57:21;;;;;;;1999.90;999.90;;;3.30;99.90;;;;;;5067952;28;20979;-66
2023/03/28 00:59:49;;;;;;;1999.90;999.90;;;3.70;99.90;;;;;;5066146;28;20490;-65
2023/03/28 01:02:16;;;;;;;1999.90;999.90;;;3.60;99.90;;;;;;5067262;28;20428;-65
2023/03/28 01:04:48;;;;;;;1999.90;999.90;;;3.00;99.90;;;;;;5067233;28;20420;-64
2023/03/28 01:07:17;;;;;;;1999.90;999.90;;;2.90;99.90;;;;;;5067043;28;21006;-66
2023/03/28 01:09:44;;;;;;;1999.90;999.90;;;2.90;99.90;;;;;;5066215;28;20477;-63
2023/03/28 01:12:11;;;;;;;1999.90;999.90;;;3.30;99.90;;;;;;5065854;28;20427;-66
2023/03/28 01:14:39;;;;;;;1999.90;999.90;;;3.00;99.90;;;;;;5067613;28;20436;-65
2023/03/28 01:17:07;;;;;;;1999.90;999.90;;;3.30;99.90;;;;;;5065749;28;20428;-66
2023/03/28 01:19:57;;;;;;;1999.90;999.90;;;3.10;99.90;;;;;;5066631;28;21869;-61
2023/03/28 01:22:55;;;;;;;1999.90;999.90;;;3.20;99.90;;;;;;5066413;28;20427;-66
2023/03/28 01:25:51;;;;;;;1999.90;999.90;;;3.30;99.90;;;;;;5066282;28;20503;-65
2023/03/28 01:28:37;;;;;;;1999.90;999.90;;;3.40;99.90;;;;;;5066523;28;20517;-66
2023/03/28 01:31:42;;;;;;;1999.90;999.90;;;3.50;99.90;;;;;;5066669;28;20859;-66
2023/03/28 01:34:32;;;;;;;1999.90;999.90;;;3.50;99.90;;;;;;5065812;28;20432;-66
2023/03/28 01:37:21;;;;;;;1999.90;999.90;;;3.50;99.90;;;;;;5065482;28;20564;-66
2023/03/28 01:40:05;;;;;;;1999.90;999.90;;;3.40;99.90;;;;;;5065360;28;20526;-64
2023/03/28 01:42:42;;;;;;;1999.90;999.90;;;3.30;99.90;;;;;;5070209;28;20446;-66
2023/03/28 01:45:17;;;;;;;1999.90;999.90;;;3.50;99.90;;;;;;5068903;28;20496;-65
2023/03/28 01:47:51;;;;;;;1999.90;999.90;;;3.30;99.90;;;;;;5067636;28;20462;-66
2023/03/28 01:50:22;;;;;;;1999.90;999.90;;;3.30;99.90;;;;;;5069396;28;21283;-65
2023/03/28 01:52:57;;;;;;;1999.90;999.90;;;3.40;99.90;;;;;;5069732;28;20493;-64
2023/03/28 01:55:29;;;;;;;1999.90;999.90;;;3.30;99.90;;;;;;5070155;28;20851;-66
2023/03/28 01:58:02;;;;;;;1999.90;999.90;;;3.40;99.90;;;;;;5069987;28;20431;-66
2023/03/28 02:00:33;;;;;;;1999.90;999.90;;;3.50;99.90;;;;;;5069139;28;20434;-66
2023/03/28 02:03:05;;;;;;;1999.90;999.90;;;3.50;99.90;;;;;;5067671;28;20432;-66
2023/03/28 02:05:34;;;;;;;1999.90;999.90;;;3.50;99.90;;;;;;5068952;28;20485;-66
2023/03/28 02:08:07;;;;;;;1999.90;999.90;;;3.60;99.90;;;;;;5069898;28;20427;-66
2023/03/28 02:10:34;;;;;;;1999.90;999.90;;;3.50;99.90;;;;;;5069020;28;20500;-66
2023/03/28 02:13:05;;;;;;;1999.90;999.90;;;3.60;99.90;;;;;;5069646;28;20431;-66
2023/03/28 02:15:32;;;;;;;1999.90;999.90;;;3.60;99.90;;;;;;5068661;28;20436;-66
2023/03/28 02:18:04;;;;;;;1999.90;999.90;;;3.50;99.90;;;;;;5069865;28;20493;-65
2023/03/28 02:20:35;;;;;;;1999.90;999.90;;;3.50;99.90;;;;;;5070514;28;20439;-66
2023/03/28 02:23:07;;;;;;;1999.90;999.90;;;3.50;99.90;;;;;;5069747;28;20435;-66
2023/03/28 02:25:35;;;;;;;1999.90;999.90;;;3.60;99.90;;;;;;5069043;28;20917;-66
2023/03/28 02:28:06;;;;;;;1999.90;999.90;;;3.60;99.90;;;;;;5068281;28;20500;-67
2023/03/28 02:30:34;;;;;;;1999.90;999.90;;;3.60;99.90;;;;;;5069122;28;20427;-66
2023/03/28 02:33:02;;;;;;;1999.90;999.90;;;3.50;99.90;;;;;;5069293;28;20435;-65
2023/03/28 02:35:39;;;;;;;1999.90;999.90;;;3.50;99.90;;;;;;5070312;28;20432;-66
2023/03/28 02:38:17;;;;;;;1999.90;999.90;;;3.40;99.90;;;;;;5068220;28;20431;-64
2023/03/28 02:40:53;;;;;;;1999.90;999.90;;;3.60;99.90;;;;;;5070267;28;20431;-66
2023/03/28 02:43:59;;;;;;;1999.90;999.90;;;3.40;99.90;;;;;;5068300;28;20434;-66
2023/03/28 02:46:31;;;;;;;1999.90;999.90;;;3.40;99.90;;;;;;5069513;28;20485;-65
2023/03/28 02:49:27;;;;;;;1999.90;999.90;;;3.40;99.90;;;;;;5069096;28;20494;-66
2023/03/28 02:52:03;;;;;;;1999.90;999.90;;;3.40;99.90;;;;;;5065593;28;20416;-66
2023/03/28 02:54:37;;;;;;;1999.90;999.90;;;3.40;99.90;;;;;;5067148;28;20423;-65
2023/03/28 02:57:09;;;;;;;1999.90;999.90;;;3.40;99.90;;;;;;5068576;28;20507;-65
2023/03/28 02:59:42;;;;;;;1999.90;999.90;;;3.40;99.90;;;;;;5068182;28;20502;-64
2023/03/28 03:02:10;;;;;;;1999.90;999.90;;;3.40;99.90;;;;;;5067426;28;20432;-64
2023/03/28 03:04:37;;;;;;;1999.90;999.90;;;3.40;99.90;;;;;;5069438;28;20489;-65
2023/03/28 03:07:03;;;;;;;1999.90;999.90;;;3.30;99.90;;;;;;5068405;28;20525;-64
2023/03/28 03:09:32;;;;;;;1999.90;999.90;;;3.30;99.90;;;;;;5069266;28;20427;-65
2023/03/28 03:11:58;;;;;;;1999.90;999.90;;;3.30;99.90;;;;;;5068674;28;20865;-65
2023/03/28 03:14:26;;;;;;;1999.90;999.90;;;3.10;99.90;;;;;;5068418;28;20432;-65
2023/03/28 03:16:53;;;;;;;1999.90;999.90;;;3.40;99.90;;;;;;5068594;28;20434;-63
2023/03/28 03:19:19;;;;;;;1999.90;999.90;;;3.50;99.90;;;;;;5068217;28;20913;-65
2023/03/28 03:21:46;;;;;;;1999.90;999.90;;;3.00;99.90;;;;;;5065420;28;20424;-65
2023/03/28 03:24:13;;;;;;;1999.90;999.90;;;3.10;99.90;;;;;;5068089;28;20433;-65
2023/03/28 03:26:41;;;;;;;1999.90;999.90;;;3.60;99.90;;;;;;5068507;28;20439;-65
2023/03/28 03:29:08;;;;;;;1999.90;999.90;;;3.10;99.90;;;;;;5068156;28;20913;-64
2023/03/28 03:31:35;;;;;;;1999.90;999.90;;;3.20;99.90;;;;;;5068570;28;20457;-64
2023/03/28 03:34:02;;;;;;;1999.90;999.90;;;3.20;99.90;;;;;;5067944;28;20813;-65
2023/03/28 03:36:30;;;;;;;1999.90;999.90;;;3.20;99.90;;;;;;5081706;22;20518;-66
2023/03/28 03:38:57;;;;;;;1999.90;999.90;;;3.20;99.90;;;;;;5052668;28;20432;-68
2023/03/28 03:41:23;;;;;;;1999.90;999.90;;;3.20;99.90;;;;;;5049394;28;20432;-69
2023/03/28 03:43:51;;;;;;;1999.90;999.90;;;3.20;99.90;;;;;;5045675;28;20515;-70
2023/03/28 03:46:18;;;;;;;1999.90;999.90;;;3.30;99.90;;;;;;5043678;28;20473;-69
2023/03/28 03:48:45;;;;;;;1999.90;999.90;;;3.20;99.90;;;;;;5043609;28;20508;-69
2023/03/28 03:51:11;;;;;;;1999.90;999.90;;;3.20;99.90;;;;;;5046389;28;20940;-69
2023/03/28 03:53:38;;;;;;;1999.90;999.90;;;3.20;99.90;;;;;;5045162;28;20849;-70
2023/03/28 03:56:06;;;;;;;1999.90;999.90;;;3.30;99.90;;;;;;5046148;28;20458;-69
2023/03/28 03:58:33;;;;;;;1999.90;999.90;;;3.30;99.90;;;;;;5044944;28;20437;-71
2023/03/28 04:01:01;;;;;;;1999.90;999.90;;;3.30;99.90;;;;;;5044992;28;20499;-69
2023/03/28 04:03:27;;;;;;;1999.90;999.90;;;3.40;99.90;;;;;;5046766;28;20499;-69
2023/03/28 04:05:56;;;;;;;1999.90;999.90;;;3.50;99.90;;;;;;5047561;28;20851;-68
2023/03/28 04:08:23;;;;;;;1999.90;999.90;;;3.40;99.90;;;;;;5045579;28;20508;-68
2023/03/28 04:10:49;;;;;;;1999.90;999.90;;;3.50;99.90;;;;;;5043339;28;20434;-70
2023/03/28 04:13:16;;;;;;;1999.90;999.90;;;3.50;99.90;;;;;;5045794;28;20433;-69
2023/03/28 04:15:43;;;;;;;1999.90;999.90;;;3.50;99.90;;;;;;5044692;28;20433;-68
2023/03/28 04:18:11;;;;;;;1999.90;999.90;;;3.40;99.90;;;;;;5046870;28;20495;-69
2023/03/28 04:20:39;;;;;;;1999.90;999.90;;;3.30;99.90;;;;;;5044216;28;20854;-69
2023/03/28 04:23:07;;;;;;;1999.90;999.90;;;3.80;99.90;;;;;;5043859;28;20512;-69
2023/03/28 04:25:33;;;;;;;1999.90;999.90;;;3.40;99.90;;;;;;5043990;28;20433;-66
2023/03/28 04:28:00;;;;;;;1999.90;999.90;;;3.40;99.90;;;;;;5046035;28;20511;-69
2023/03/28 04:30:27;;;;;;;1999.90;999.90;;;3.40;99.90;;;;;;5047553;28;20429;-68
2023/03/28 04:32:54;;;;;;;1999.90;999.90;;;3.40;99.90;;;;;;5042093;28;20435;-69
2023/03/28 04:35:23;;;;;;;1999.90;999.90;;;3.40;99.90;;;;;;5042953;28;20486;-69
2023/03/28 04:37:49;;;;;;;1999.90;999.90;;;3.30;99.90;;;;;;5042033;28;20427;-69
2023/03/28 04:40:16;;;;;;;1999.90;999.90;;;3.40;99.90;;;;;;5046841;28;20433;-72
2023/03/28 04:42:43;;;;;;;1999.90;999.90;;;3.30;99.90;;;;;;5044461;28;20823;-66
2023/03/28 04:45:10;;;;;;;1999.90;999.90;;;3.20;99.90;;;;;;5045010;28;20425;-70
2023/03/28 04:47:38;;;;;;;1999.90;999.90;;;3.20;99.90;;;;;;5043397;28;20440;-71
2023/03/28 04:50:06;;;;;;;1999.90;999.90;;;3.10;99.90;;;;;;5045583;28;20428;-69
2023/03/28 04:52:34;;;;;;;1999.90;999.90;;;3.20;99.90;;;;;;5047793;28;20486;-67
2023/03/28 04:55:01;;;;;;;1999.90;999.90;;;3.20;99.90;;;;;;5046185;28;20431;-69
2023/03/28 04:57:28;;;;;;;1999.90;999.90;;;3.10;99.90;;;;;;5044895;28;20433;-68
2023/03/28 04:59:54;;;;;;;1999.90;999.90;;;3.10;99.90;;;;;;5043989;28;20430;-66
2023/03/28 05:02:21;;;;;;;1999.90;999.90;;;3.00;99.90;;;;;;5042638;28;20428;-67
2023/03/28 05:04:48;;;;;;;1999.90;999.90;;;3.00;99.90;;;;;;5044651;28;20445;-67
2023/03/28 05:07:15;;;;;;;1999.90;999.90;;;2.90;99.90;;;;;;5048467;28;20433;-67
2023/03/28 05:09:43;;;;;;;1999.90;999.90;;;3.00;99.90;;;;;;5043154;28;20448;-69
2023/03/28 05:12:10;;;;;;;1999.90;999.90;;;2.80;99.90;;;;;;5043374;28;20476;-69
2023/03/28 05:14:36;;;;;;;1999.90;999.90;;;2.90;99.90;;;;;;5047334;28;20443;-70
2023/03/28 05:17:03;;;;;;;1999.90;999.90;;;2.60;99.90;;;;;;5068641;28;20468;-69
2023/03/28 05:19:30;;;;;;;1999.90;999.90;;;2.70;99.90;;;;;;5066043;28;20441;-69
2023/03/28 05:21:56;;;;;;;1999.90;999.90;;;2.90;99.90;;;;;;5064912;28;20894;-70
2023/03/28 05:24:23;;;;;;;1999.90;999.90;;;2.70;99.90;;;;;;5049697;28;20432;-69
2023/03/28 05:26:51;;;;;;;1999.90;999.90;;;2.70;99.90;;;;;;5046423;28;20442;-71
2023/03/28 05:29:17;;;;;;;1999.90;999.90;;;2.90;99.90;;;;;;5044451;28;20429;-69
2023/03/28 05:31:44;;;;;;;1999.90;999.90;;;3.10;99.90;;;;;;5048465;28;20420;-70
2023/03/28 05:34:11;;;;;;;1999.90;999.90;;;2.70;99.90;;;;;;5047557;28;20428;-70
2023/03/28 05:36:37;;;;;;;1999.90;999.90;;;2.80;99.90;;;;;;5046458;28;20483;-70
2023/03/28 05:39:05;;;;;;;1999.90;999.90;;;3.00;99.90;;;;;;5046897;28;20938;-73
2023/03/28 05:41:32;;;;;;;1999.90;999.90;;;3.20;99.90;;;;;;5052098;28;20429;-68
2023/03/28 05:44:00;;;;;;;1999.90;999.90;;;2.90;99.90;;;;;;5047480;28;20435;-70
2023/03/28 05:46:26;;;;;;;1999.90;999.90;;;3.00;99.90;;;;;;5049106;28;20439;-69
2023/03/28 05:48:53;;;;;;;1999.90;999.90;;;3.10;99.90;;;;;;5046461;28;20690;-70
2023/03/28 05:51:20;;;;;;;1999.90;999.90;;;3.10;99.90;;;;;;5046366;28;20516;-70
2023/03/28 05:53:47;;;;;;;1999.90;999.90;;;3.20;99.90;;;;;;5051165;28;20433;-68
2023/03/28 05:56:13;;;;;;;1999.90;999.90;;;3.30;99.90;;;;;;5048636;28;20503;-69
2023/03/28 05:58:40;;;;;;;1999.90;999.90;;;3.50;99.90;;;;;;5047238;28;20437;-70
2023/03/28 06:01:08;;;;;;;1999.90;999.90;;;3.50;99.90;;;;;;5047110;28;20834;-70
2023/03/28 06:03:38;;;;;;;1999.90;999.90;;;3.60;99.90;;;;;;5045960;28;20907;-70
2023/03/28 06:06:05;;;;;;;1999.90;999.90;;;3.80;99.90;;;;;;5049446;28;20466;-70
2023/03/28 06:08:32;;;;;;;1999.90;999.90;;;3.90;99.90;;;;;;5047291;28;20441;-68
2023/03/28 06:11:00;;;;;;;1999.90;999.90;;;3.90;99.90;;;;;;5045817;28;20438;-71
2023/03/28 06:13:27;;;;;;;1999.90;999.90;;;4.00;99.90;;;;;;5046200;28;20429;-70
2023/03/28 06:15:54;;;;;;;1999.90;999.90;;;4.00;99.90;;;;;;5045132;28;20479;-69
2023/03/28 06:18:22;;;;;;;1999.90;999.90;;;4.10;99.90;;;;;;5049466;28;20434;-69
2023/03/28 06:20:49;;;;;;;1999.90;999.90;;;4.20;99.90;;;;;;5044566;28;20772;-67
2023/03/28 06:23:16;;;;;;;1999.90;999.90;;;4.30;99.90;;;;;;5047578;28;20433;-70
2023/03/28 06:25:43;;;;;;;1999.90;999.90;;;4.30;99.90;;;;;;5044990;28;20425;-70
2023/03/28 06:28:10;;;;;;;1999.90;999.90;;;4.30;99.90;;;;;;5047897;28;20915;-70
2023/03/28 06:30:38;;;;;;;1999.90;999.90;;;4.40;99.90;;;;;;5051232;28;20495;-70
2023/03/28 06:33:05;;;;;;;1999.90;999.90;;;4.30;99.90;;;;;;5046488;28;20439;-70
2023/03/28 06:35:33;;;;;;;1999.90;999.90;;;4.40;99.90;;;;;;5047968;28;20429;-69
2023/03/28 06:38:00;;;;;;;1999.90;999.90;;;4.50;99.90;;;;;;5045697;28;20800;-69
2023/03/28 06:40:27;;;;;;;1999.90;999.90;;;4.60;99.90;;;;;;5045146;28;20433;-70
2023/03/28 06:42:53;;;;;;;1999.90;999.90;;;4.70;99.90;;;;;;5049138;28;20433;-69
2023/03/28 06:45:20;;;;;;;1999.90;999.90;;;4.80;99.90;;;;;;5047129;28;20776;-69
2023/03/28 06:47:49;;;;;;;1999.90;999.90;;;4.90;99.90;;;;;;5042412;28;20858;-70
2023/03/28 06:50:16;;;;;;;1999.90;999.90;;;5.00;99.90;;;;;;5046746;28;20942;-70
2023/03/28 06:52:44;;;;;;;1999.90;999.90;;;4.90;99.90;;;;;;5047333;28;20547;-67
2023/03/28 06:55:10;;;;;;;1999.90;999.90;;;4.80;99.90;;;;;;5054008;28;20428;-71
2023/03/28 06:57:37;;;;;;;1999.90;999.90;;;4.70;99.90;;;;;;5066855;28;20476;-74
2023/03/28 07:00:06;;;;;;;1999.90;999.90;;;4.70;99.90;;;;;;5067535;28;20443;-74
2023/03/28 07:02:32;;;;;;;1999.90;999.90;;;4.80;99.90;;;;;;5056096;28;20559;-70
2023/03/28 07:04:59;;;;;;;1999.90;999.90;;;5.20;99.90;;;;;;5049414;28;20433;-70
2023/03/28 07:07:26;;;;;;;1999.90;999.90;;;5.20;99.90;;;;;;5050191;28;20441;-69
2023/03/28 07:09:54;;;;;;;1999.90;999.90;;;5.10;99.90;;;;;;5045809;28;20437;-69
2023/03/28 07:12:20;;;;;;;1999.90;999.90;;;5.10;99.90;;;;;;5045641;28;20502;-71
2023/03/28 07:14:47;;;;;;;1999.90;999.90;;;5.10;99.90;;;;;;5046698;28;20834;-71
2023/03/28 07:17:14;;;;;;;1999.90;999.90;;;5.20;99.90;;;;;;5045758;28;20546;-69
2023/03/28 07:19:40;;;;;;;1999.90;999.90;;;5.10;99.90;;;;;;5046513;28;20954;-72
2023/03/28 07:22:07;;;;;;;1999.90;999.90;;;4.90;99.90;;;;;;5045934;28;20439;-70
2023/03/28 07:24:34;;;;;;;1999.90;999.90;;;4.90;99.90;;;;;;5046514;28;20434;-70
2023/03/28 07:27:02;;;;;;;1999.90;999.90;;;4.80;99.90;;;;;;5040647;28;20438;-72
2023/03/28 07:29:29;;;;;;;1999.90;999.90;;;5.10;99.90;;;;;;5044614;28;20429;-69
2023/03/28 07:31:56;;;;;;;1999.90;999.90;;;5.30;99.90;;;;;;5046995;28;20438;-70
2023/03/28 07:34:22;;;;;;;1999.90;999.90;;;5.50;99.90;;;;;;5044481;28;20429;-70
2023/03/28 07:36:49;;;;;;;1999.90;999.90;;;5.50;99.90;;;;;;5042298;28;20441;-70
2023/03/28 07:39:15;;;;;;;1999.90;999.90;;;5.40;99.90;;;;;;5045018;28;20429;-69
2023/03/28 07:41:42;;;;;;;1999.90;999.90;;;5.30;99.90;;;;;;5043234;28;20492;-70
2023/03/28 07:44:10;;;;;;;1999.90;999.90;;;5.30;99.90;;;;;;5042570;28;20434;-69
2023/03/28 07:46:37;;;;;;;1999.90;999.90;;;5.40;99.90;;;;;;5043767;28;20922;-69
2023/03/28 07:49:04;;;;;;;1999.90;999.90;;;5.30;99.90;;;;;;5043049;28;20439;-67
2023/03/28 07:51:30;;;;;;;1999.90;999.90;;;5.30;99.90;;;;;;5045534;28;20429;-70
2023/03/28 07:53:57;;;;;;;1999.90;999.90;;;5.30;99.90;;;;;;5040371;28;20443;-70
2023/03/28 07:56:23;;;;;;;1999.90;999.90;;;5.50;99.90;;;;;;5041294;28;20940;-70
2023/03/28 07:58:50;;;;;;;1999.90;999.90;;;5.60;99.90;;;;;;5043811;28;20490;-68
2023/03/28 08:01:18;;;;;;;1999.90;999.90;;;5.60;99.90;;;;;;5047136;28;20441;-71
2023/03/28 08:03:45;;;;;;;1999.90;999.90;;;5.70;99.90;;;;;;5040205;28;20773;-70
2023/03/28 08:06:14;;;;;;;1999.90;999.90;;;5.70;99.90;;;;;;5039848;28;20431;-71
2023/03/28 08:08:40;;;;;;;1999.90;999.90;;;5.70;99.90;;;;;;5042705;28;20993;-70
2023/03/28 08:11:07;;;;;;;1999.90;999.90;;;5.80;99.90;;;;;;5046323;28;20976;-70
2023/03/28 08:13:34;;;;;;;1999.90;999.90;;;5.90;99.90;;;;;;5045927;28;20703;-71
2023/03/28 08:16:00;;;;;;;1999.90;999.90;;;5.80;99.90;;;;;;5040601;28;20430;-72
2023/03/28 08:18:28;;;;;;;1999.90;999.90;;;5.80;99.90;;;;;;5042554;28;20854;-70
2023/03/28 08:20:59;;;;;;;1999.90;999.90;;;5.80;99.90;;;;;;5039841;28;20576;-69
2023/03/28 08:23:26;;;;;;;1999.90;999.90;;;5.70;99.90;;;;;;5041793;28;20432;-70
2023/03/28 08:25:58;;;;;;;1999.90;999.90;;;5.60;99.90;;;;;;5046010;28;20571;-68
2023/03/28 08:28:25;;;;;;;1999.90;999.90;;;5.70;99.90;;;;;;5044559;28;20441;-68
2023/03/28 08:30:51;;;;;;;1999.90;999.90;;;5.90;99.90;;;;;;5040584;28;20939;-68
2023/03/28 08:33:18;;;;;;;1999.90;999.90;;;6.10;99.90;;;;;;5040846;28;20993;-68
2023/03/28 08:35:46;;;;;;;1999.90;999.90;;;6.20;99.90;;;;;;5047045;28;20853;-70
2023/03/28 08:38:13;;;;;;;1999.90;999.90;;;6.20;99.90;;;;;;5043437;28;20530;-68
2023/03/28 08:40:48;;;;;;;1999.90;999.90;;;6.20;99.90;;;;;;5041764;28;20437;-69
2023/03/28 08:43:36;;;;;;;1999.90;999.90;;;6.20;99.90;;;;;;5039802;28;20434;-68
2023/03/28 08:46:03;;;;;;;1999.90;999.90;;;6.50;99.90;;;;;;5043809;28;21081;-68
2023/03/28 08:48:37;;;;;;;1999.90;999.90;;;6.80;99.90;;;;;;5046475;28;20925;-67
2023/03/28 08:51:13;;;;;;;1999.90;999.90;;;7.30;99.90;;;;;;5042579;28;20465;-67
2023/03/28 08:53:45;;;;;;;1999.90;999.90;;;7.70;99.90;;;;;;5046626;28;20445;-68
2023/03/28 08:56:15;;;;;;;1999.90;999.90;;;7.70;99.90;;;;;;5041226;28;20848;-67
2023/03/28 08:58:51;;;;;;;1999.90;999.90;;;7.60;99.90;;;;;;5042169;28;20502;-68
2023/03/28 09:01:21;;;;;;;1999.90;999.90;;;7.40;99.90;;;;;;5040224;28;20442;-67
2023/03/28 09:03:48;;;;;;;1999.90;999.90;;;7.20;99.90;;;;;;5041873;28;20429;-66
2023/03/28 09:06:26;;;;;;;1999.90;999.90;;;7.10;99.90;;;;;;5041936;28;20435;-67
2023/03/28 09:09:10;;;;;;;1999.90;999.90;;;7.10;99.90;;;;;;5041213;28;20429;-68
2023/03/28 09:11:47;;;;;;;1999.90;999.90;;;7.10;99.90;;;;;;5044984;28;20433;-68
2023/03/28 09:14:45;;;;;;;1999.90;999.90;;;7.10;99.90;;;;;;5043231;28;20483;-67
2023/03/28 09:17:18;;;;;;;1999.90;999.90;;;7.00;99.90;;;;;;5041481;28;20936;-67
2023/03/28 09:19:57;;;;;;;1999.90;999.90;;;7.00;99.90;;;;;;5041781;28;20485;-66
2023/03/28 09:22:33;;;;;;;1999.90;999.90;;;7.10;99.90;;;;;;5039786;28;20431;-68
2023/03/28 09:25:08;;;;;;;1999.90;999.90;;;7.00;99.90;;;;;;5039343;28;20421;-68
2023/03/28 09:27:39;;;;;;;1999.90;999.90;;;6.80;99.90;;;;;;5048365;28;20425;-68
2023/03/28 09:30:18;;;;;;;1999.90;999.90;;;6.70;99.90;;;;;;5040997;28;20801;-71
2023/03/28 09:32:45;;;;;;;1999.90;999.90;;;6.60;99.90;;;;;;5039003;28;20992;-71
2023/03/28 09:35:16;;;;;;;1999.90;999.90;;;6.60;99.90;;;;;;5039520;28;20441;-69
2023/03/28 09:40:20;;;;;;;1999.90;999.90;;;6.80;99.90;;;;;;5067593;22;20823;-74
2023/03/28 09:42:55;;;;;;;1999.90;999.90;;;7.30;99.90;;;;;;5045462;28;20475;-74
2023/03/28 09:45:36;;;;;;;1999.90;999.90;;;8.10;99.90;;;;;;5045272;28;20436;-72
2023/03/28 09:48:03;;;;;;;1999.90;999.90;;;7.80;99.90;;;;;;5044082;28;20950;-73
2023/03/28 09:50:31;;;;;;;1999.90;999.90;;;8.00;99.90;;;;;;5045989;28;20523;-73
2023/03/28 09:52:58;;;;;;;1999.90;999.90;;;8.20;99.90;;;;;;5042414;28;22143;-74
2023/03/28 09:55:29;;;;;;;1999.90;999.90;;;8.20;99.90;;;;;;5042205;28;20431;-73
2023/03/28 09:58:03;;;;;;;1999.90;999.90;;;8.10;99.90;;;;;;5044045;28;20433;-74
2023/03/28 10:00:35;;;;;;;1999.90;999.90;;;7.50;99.90;;;;;;5054698;28;20428;-72
2023/03/28 10:03:02;;;;;;;1999.90;999.90;;;7.10;99.90;;;;;;5040360;28;21001;-72
2023/03/28 10:05:39;;;;;;;1999.90;999.90;;;7.10;99.90;;;;;;5050521;28;20467;-74
2023/03/28 10:08:21;;;;;;;1999.90;999.90;;;7.30;99.90;;;;;;5049258;28;20437;-69
2023/03/28 10:10:57;;;;;;;1999.90;999.90;;;7.50;99.90;;;;;;5045257;28;20807;-73
2023/03/28 10:13:25;;;;;;;1999.90;999.90;;;7.60;99.90;;;;;;5050269;28;20428;-72
2023/03/28 10:15:53;;;;;;;1999.90;999.90;;;7.70;99.90;;;;;;5052473;28;20436;-73
2023/03/28 10:18:21;;;;;;;1999.90;999.90;;;7.90;99.90;;;;;;5048642;28;20875;-73
2023/03/28 10:20:50;;;;;;;1999.90;999.90;;;8.00;99.90;;;;;;5051044;28;20834;-73
2023/03/28 10:23:17;;;;;;;1999.90;999.90;;;8.20;99.90;;;;;;5052144;28;20438;-73
2023/03/28 10:25:49;;;;;;;1999.90;999.90;;;8.30;99.90;;;;;;5049295;28;20935;-74
2023/03/28 10:28:26;;;;;;;1999.90;999.90;;;8.30;99.90;;;;;;5046979;28;20439;-74
2023/03/28 10:30:56;;;;;;;1999.90;999.90;;;8.20;99.90;;;;;;5047845;28;20838;-73
2023/03/28 10:33:30;;;;;;;1999.90;999.90;;;8.20;99.90;;;;;;5044771;28;20545;-74
2023/03/28 10:35:59;;;;;;;1999.90;999.90;;;8.30;99.90;;;;;;5050244;28;20463;-72
2023/03/28 10:38:30;;;;;;;1999.90;999.90;;;8.30;99.90;;;;;;5048888;28;20452;-73
2023/03/28 10:41:03;;;;;;;1999.90;999.90;;;8.10;99.90;;;;;;5048544;28;20490;-73
2023/03/28 10:43:37;;;;;;;1999.90;999.90;;;8.10;99.90;;;;;;5052958;28;20429;-73
2023/03/28 10:46:13;;;;;;;1999.90;999.90;;;8.10;99.90;;;;;;5047392;28;20437;-73
2023/03/28 10:48:42;;;;;;;1999.90;999.90;;;8.00;99.90;;;;;;5048869;28;20442;-70
2023/03/28 10:51:16;;;;;;;1999.90;999.90;;;7.80;99.90;;;;;;5052301;28;20915;-73
2023/03/28 10:54:05;;;;;;;1999.90;999.90;;;7.90;99.90;;;;;;5048868;28;20430;-74
2023/03/28 10:56:37;;;;;;;1999.90;999.90;;;8.10;99.90;;;;;;5043406;28;20440;-75
2023/03/28 10:59:34;;;;;;;1999.90;999.90;;;8.30;99.90;;;;;;5050559;28;20853;-73
2023/03/28 11:02:32;;;;;;;1999.90;999.90;;;8.40;99.90;;;;;;5042376;28;20523;-70
2023/03/28 11:05:03;;;;;;;1999.90;999.90;;;8.30;99.90;;;;;;5047345;28;20638;-73
2023/03/28 11:07:37;;;;;;;1999.90;999.90;;;8.30;99.90;;;;;;5045128;28;20507;-74
2023/03/28 11:10:14;;;;;;;1999.90;999.90;;;8.10;99.90;;;;;;5049199;28;20479;-73
2023/03/28 11:12:57;;;;;;;1999.90;999.90;;;7.90;99.90;;;;;;5045433;28;20425;-75
2023/03/28 11:15:30;;;;;;;1999.90;999.90;;;7.80;99.90;;;;;;5046734;28;20429;-73
2023/03/28 11:18:09;;;;;;;1999.90;999.90;;;7.80;99.90;;;;;;5047078;28;20433;-74
2023/03/28 11:20:46;;;;;;;1999.90;999.90;;;7.90;99.90;;;;;;5045279;28;20460;-73
2023/03/28 11:23:48;;;;;;;1999.90;999.90;;;8.00;99.90;;;;;;5045835;28;20444;-77
2023/03/28 11:26:20;;;;;;;1999.90;999.90;;;8.00;99.90;;;;;;5004978;28;20931;-75
2023/03/28 11:29:11;;;;;;;1999.90;999.90;;;8.20;99.90;;;;;;5050920;28;20429;-74
2023/03/28 11:31:45;;;;;;;1999.90;999.90;;;8.70;99.90;;;;;;5047474;28;20551;-74
2023/03/28 11:34:20;;;;;;;1999.90;999.90;;;9.40;99.90;;;;;;5050479;28;20949;-76
2023/03/28 11:36:54;;;;;;;1999.90;999.90;;;9.30;99.90;;;;;;5046865;28;20431;-73
2023/03/28 11:39:31;;;;;;;1999.90;999.90;;;9.40;99.90;;;;;;5044172;28;20425;-74
2023/03/28 11:42:02;;;;;;;1999.90;999.90;;;9.30;99.90;;;;;;5047842;28;20432;-75
2023/03/28 11:44:32;;;;;;;1999.90;999.90;;;9.10;99.90;;;;;;5046774;28;20432;-73
2023/03/28 11:47:05;;;;;;;1999.90;999.90;;;8.90;99.90;;;;;;5046985;28;20454;-76
2023/03/28 11:49:38;;;;;;;1999.90;999.90;;;8.90;99.90;;;;;;5042701;28;20445;-74
2023/03/28 11:52:13;;;;;;;1999.90;999.90;;;8.70;99.90;;;;;;5047603;28;20457;-73
2023/03/28 11:54:44;;;;;;;1999.90;999.90;;;8.80;99.90;;;;;;5046997;28;20435;-72
2023/03/28 11:57:17;;;;;;;1999.90;999.90;;;8.80;99.80;;;;;;5047942;28;20432;-76
2023/03/28 11:59:48;;;;;;;1999.90;999.90;;;8.80;99.90;;;;;;5051415;28;20429;-72
2023/03/28 12:02:34;;;;;;;1999.90;999.90;;;8.70;99.90;;;;;;5053565;28;20473;-73
2023/03/28 12:05:09;;;;;;;1999.90;999.90;;;8.60;99.90;;;;;;5053149;28;20430;-72
2023/03/28 12:07:42;;;;;;;1999.90;999.90;;;8.40;99.90;;;;;;5053665;28;20410;-72
2023/03/28 12:10:19;;;;;;;1999.90;999.90;;;8.30;99.90;;;;;;5044613;28;20423;-72
2023/03/28 12:13:00;;;;;;;1999.90;999.90;;;8.40;99.90;;;;;;5045865;28;20427;-72
2023/03/28 12:15:37;;;;;;;1999.90;999.90;;;8.70;99.90;;;;;;5036509;28;20418;-72
2023/03/28 12:18:12;;;;;;;1999.90;999.90;;;8.60;99.60;;;;;;5049638;28;20509;-72
2023/03/28 12:20:46;;;;;;;1999.90;999.90;;;8.50;99.90;;;;;;5053186;28;20464;-72
2023/03/28 12:23:22;;;;;;;1999.90;999.90;;;8.60;99.90;;;;;;5051550;28;20425;-72
2023/03/28 12:25:57;;;;;;;1999.90;999.90;;;9.30;99.90;;;;;;5052929;28;20926;-70
2023/03/28 12:28:31;;;;;;;1999.90;999.90;;;9.90;99.10;;;;;;5032697;28;20409;-72
2023/03/28 12:31:05;;;;;;;1999.90;999.90;;;9.90;98.50;;;;;;5032048;28;20506;-75